sensor_id;sensor_type;location;lat;lon;timestamp;P1;durP1;ratioP1;P2;durP2;ratioP2
16775;SDS011;8505;49.456;8.164;2024-03-06T00:01:16;7.72;;;3.40;;
16775;SDS011;8505;49.456;8.164;2024-03-06T00:03:44;7.00;;;3.30;;
16775;SDS011;8505;49.456;8.164;2024-03-06T00:06:12;6.50;;;3.30;;
16775;SDS011;8505;49.456;8.164;2024-03-06T00:08:40;5.47;;;3.20;;
16775;SDS011;8505;49.456;8.164;2024-03-06T00:11:07;6.00;;;3.03;;
16775;SDS011;8505;49.456;8.164;2024-03-06T00:13:35;6.05;;;2.90;;
16775;SDS011;8505;49.456;8.164;2024-03-06T00:16:05;5.32;;;3.03;;
16775;SDS011;8505;49.456;8.164;2024-03-06T00:18:33;6.85;;;3.00;;
16775;SDS011;8505;49.456;8.164;2024-03-06T00:21:01;5.55;;;3.15;;
16775;SDS011;8505;49.456;8.164;2024-03-06T00:23:28;5.70;;;3.20;;
16775;SDS011;8505;49.456;8.164;2024-03-06T00:25:57;5.55;;;3.00;;
16775;SDS011;8505;49.456;8.164;2024-03-06T00:28:25;6.13;;;3.17;;
16775;SDS011;8505;49.456;8.164;2024-03-06T00:30:52;6.10;;;2.95;;
16775;SDS011;8505;49.456;8.164;2024-03-06T00:33:21;5.65;;;2.85;;
16775;SDS011;8505;49.456;8.164;2024-03-06T00:35:49;5.72;;;2.67;;
16775;SDS011;8505;49.456;8.164;2024-03-06T00:38:17;4.90;;;2.50;;
16775;SDS011;8505;49.456;8.164;2024-03-06T00:40:44;5.70;;;2.75;;
16775;SDS011;8505;49.456;8.164;2024-03-06T00:43:12;6.13;;;2.60;;
16775;SDS011;8505;49.456;8.164;2024-03-06T00:45:40;5.67;;;2.73;;
16775;SDS011;8505;49.456;8.164;2024-03-06T00:48:07;6.72;;;2.97;;
16775;SDS011;8505;49.456;8.164;2024-03-06T00:50:36;5.95;;;2.83;;
16775;SDS011;8505;49.456;8.164;2024-03-06T00:53:04;7.55;;;3.22;;
16775;SDS011;8505;49.456;8.164;2024-03-06T00:55:33;7.35;;;3.13;;
16775;SDS011;8505;49.456;8.164;2024-03-06T00:58:00;7.85;;;3.50;;
16775;SDS011;8505;49.456;8.164;2024-03-06T01:00:29;5.88;;;3.00;;
16775;SDS011;8505;49.456;8.164;2024-03-06T01:02:56;5.87;;;3.10;;
16775;SDS011;8505;49.456;8.164;2024-03-06T01:05:24;6.97;;;3.28;;
16775;SDS011;8505;49.456;8.164;2024-03-06T01:07:54;5.78;;;3.05;;
16775;SDS011;8505;49.456;8.164;2024-03-06T01:10:23;6.47;;;2.88;;
16775;SDS011;8505;49.456;8.164;2024-03-06T01:12:51;7.25;;;3.50;;
16775;SDS011;8505;49.456;8.164;2024-03-06T01:15:19;7.03;;;3.47;;
16775;SDS011;8505;49.456;8.164;2024-03-06T01:17:46;2.90;;;0.97;;
16775;SDS011;8505;49.456;8.164;2024-03-06T01:20:14;1.90;;;0.70;;
16775;SDS011;8505;49.456;8.164;2024-03-06T01:22:42;0.52;;;0.45;;
16775;SDS011;8505;49.456;8.164;2024-03-06T01:25:13;0.25;;;0.25;;
16775;SDS011;8505;49.456;8.164;2024-03-06T01:27:41;0.80;;;0.63;;
16775;SDS011;8505;49.456;8.164;2024-03-06T01:30:09;0.57;;;0.47;;
16775;SDS011;8505;49.456;8.164;2024-03-06T01:32:37;2.20;;;0.50;;
16775;SDS011;8505;49.456;8.164;2024-03-06T01:35:05;0.35;;;0.28;;
16775;SDS011;8505;49.456;8.164;2024-03-06T01:37:34;0.50;;;0.38;;
16775;SDS011;8505;49.456;8.164;2024-03-06T01:40:02;0.15;;;0.15;;
16775;SDS011;8505;49.456;8.164;2024-03-06T01:42:32;0.82;;;0.40;;
16775;SDS011;8505;49.456;8.164;2024-03-06T01:45:01;1.23;;;0.57;;
16775;SDS011;8505;49.456;8.164;2024-03-06T01:47:29;3.38;;;1.15;;
16775;SDS011;8505;49.456;8.164;2024-03-06T01:49:57;1.58;;;0.80;;
16775;SDS011;8505;49.456;8.164;2024-03-06T01:52:25;2.05;;;0.73;;
16775;SDS011;8505;49.456;8.164;2024-03-06T01:54:54;0.82;;;0.63;;
16775;SDS011;8505;49.456;8.164;2024-03-06T01:57:22;0.85;;;0.55;;
16775;SDS011;8505;49.456;8.164;2024-03-06T01:59:51;0.20;;;0.20;;
16775;SDS011;8505;49.456;8.164;2024-03-06T02:02:20;0.98;;;0.50;;
16775;SDS011;8505;49.456;8.164;2024-03-06T02:04:48;1.45;;;0.73;;
16775;SDS011;8505;49.456;8.164;2024-03-06T02:07:16;1.70;;;1.00;;
16775;SDS011;8505;49.456;8.164;2024-03-06T02:09:44;0.70;;;0.37;;
16775;SDS011;8505;49.456;8.164;2024-03-06T02:12:12;3.03;;;0.73;;
16775;SDS011;8505;49.456;8.164;2024-03-06T02:14:40;4.10;;;0.70;;
16775;SDS011;8505;49.456;8.164;2024-03-06T02:17:09;2.80;;;1.05;;
16775;SDS011;8505;49.456;8.164;2024-03-06T02:19:38;4.60;;;0.60;;
16775;SDS011;8505;49.456;8.164;2024-03-06T02:22:08;1.55;;;1.10;;
16775;SDS011;8505;49.456;8.164;2024-03-06T02:24:37;0.57;;;0.57;;
16775;SDS011;8505;49.456;8.164;2024-03-06T02:27:05;1.42;;;0.82;;
16775;SDS011;8505;49.456;8.164;2024-03-06T02:29:32;0.40;;;0.40;;
16775;SDS011;8505;49.456;8.164;2024-03-06T02:32:00;2.05;;;0.65;;
16775;SDS011;8505;49.456;8.164;2024-03-06T02:34:29;1.13;;;0.65;;
16775;SDS011;8505;49.456;8.164;2024-03-06T02:36:57;1.10;;;0.70;;
16775;SDS011;8505;49.456;8.164;2024-03-06T02:39:26;3.63;;;0.85;;
16775;SDS011;8505;49.456;8.164;2024-03-06T02:41:54;3.77;;;0.97;;
16775;SDS011;8505;49.456;8.164;2024-03-06T02:44:22;1.65;;;0.93;;
16775;SDS011;8505;49.456;8.164;2024-03-06T02:46:50;3.33;;;1.37;;
16775;SDS011;8505;49.456;8.164;2024-03-06T02:49:18;8.18;;;2.60;;
16775;SDS011;8505;49.456;8.164;2024-03-06T02:51:46;6.05;;;2.70;;
16775;SDS011;8505;49.456;8.164;2024-03-06T02:54:13;7.82;;;2.63;;
16775;SDS011;8505;49.456;8.164;2024-03-06T02:56:42;6.95;;;2.80;;
16775;SDS011;8505;49.456;8.164;2024-03-06T02:59:10;5.47;;;2.50;;
16775;SDS011;8505;49.456;8.164;2024-03-06T03:01:38;2.95;;;0.88;;
16775;SDS011;8505;49.456;8.164;2024-03-06T03:04:06;2.13;;;0.88;;
16775;SDS011;8505;49.456;8.164;2024-03-06T03:06:34;1.20;;;0.70;;
16775;SDS011;8505;49.456;8.164;2024-03-06T03:09:01;1.10;;;0.45;;
16775;SDS011;8505;49.456;8.164;2024-03-06T03:11:30;0.45;;;0.43;;
16775;SDS011;8505;49.456;8.164;2024-03-06T03:13:59;1.92;;;0.85;;
16775;SDS011;8505;49.456;8.164;2024-03-06T03:16:27;3.40;;;0.88;;
16775;SDS011;8505;49.456;8.164;2024-03-06T03:18:56;2.25;;;0.68;;
16775;SDS011;8505;49.456;8.164;2024-03-06T03:21:23;2.85;;;1.00;;
16775;SDS011;8505;49.456;8.164;2024-03-06T03:23:51;2.17;;;0.57;;
16775;SDS011;8505;49.456;8.164;2024-03-06T03:26:19;3.10;;;1.00;;
16775;SDS011;8505;49.456;8.164;2024-03-06T03:28:47;2.10;;;1.00;;
16775;SDS011;8505;49.456;8.164;2024-03-06T03:31:16;0.52;;;0.50;;
16775;SDS011;8505;49.456;8.164;2024-03-06T03:33:44;3.50;;;1.40;;
16775;SDS011;8505;49.456;8.164;2024-03-06T03:36:12;2.55;;;0.50;;
16775;SDS011;8505;49.456;8.164;2024-03-06T03:38:39;1.70;;;0.82;;
16775;SDS011;8505;49.456;8.164;2024-03-06T03:41:08;0.93;;;0.60;;
16775;SDS011;8505;49.456;8.164;2024-03-06T03:43:36;1.05;;;0.77;;
16775;SDS011;8505;49.456;8.164;2024-03-06T03:46:05;2.15;;;0.68;;
16775;SDS011;8505;49.456;8.164;2024-03-06T03:48:35;0.40;;;0.40;;
16775;SDS011;8505;49.456;8.164;2024-03-06T03:51:04;1.20;;;0.60;;
16775;SDS011;8505;49.456;8.164;2024-03-06T03:53:33;1.13;;;0.65;;
16775;SDS011;8505;49.456;8.164;2024-03-06T03:56:01;1.00;;;0.60;;
16775;SDS011;8505;49.456;8.164;2024-03-06T03:58:30;1.00;;;0.40;;
16775;SDS011;8505;49.456;8.164;2024-03-06T04:00:58;0.43;;;0.40;;
16775;SDS011;8505;49.456;8.164;2024-03-06T04:03:27;1.33;;;1.05;;
16775;SDS011;8505;49.456;8.164;2024-03-06T04:05:56;1.35;;;0.70;;
16775;SDS011;8505;49.456;8.164;2024-03-06T04:08:23;1.33;;;0.55;;
16775;SDS011;8505;49.456;8.164;2024-03-06T04:10:51;0.70;;;0.50;;
16775;SDS011;8505;49.456;8.164;2024-03-06T04:13:19;1.02;;;0.47;;
16775;SDS011;8505;49.456;8.164;2024-03-06T04:15:47;1.75;;;0.90;;
16775;SDS011;8505;49.456;8.164;2024-03-06T04:18:15;4.78;;;0.90;;
16775;SDS011;8505;49.456;8.164;2024-03-06T04:20:43;1.23;;;0.82;;
16775;SDS011;8505;49.456;8.164;2024-03-06T04:23:12;1.52;;;0.98;;
16775;SDS011;8505;49.456;8.164;2024-03-06T04:25:40;4.80;;;1.13;;
16775;SDS011;8505;49.456;8.164;2024-03-06T04:28:07;1.33;;;0.50;;
16775;SDS011;8505;49.456;8.164;2024-03-06T04:30:35;2.00;;;1.10;;
16775;SDS011;8505;49.456;8.164;2024-03-06T04:33:03;1.27;;;0.85;;
16775;SDS011;8505;49.456;8.164;2024-03-06T04:35:31;1.83;;;0.80;;
16775;SDS011;8505;49.456;8.164;2024-03-06T04:37:58;1.30;;;0.98;;
16775;SDS011;8505;49.456;8.164;2024-03-06T04:40:29;4.43;;;1.50;;
16775;SDS011;8505;49.456;8.164;2024-03-06T04:42:57;2.58;;;1.30;;
16775;SDS011;8505;49.456;8.164;2024-03-06T04:45:26;2.60;;;1.33;;
16775;SDS011;8505;49.456;8.164;2024-03-06T04:47:54;2.17;;;1.10;;
16775;SDS011;8505;49.456;8.164;2024-03-06T04:50:22;2.67;;;1.02;;
16775;SDS011;8505;49.456;8.164;2024-03-06T04:52:50;3.95;;;1.55;;
16775;SDS011;8505;49.456;8.164;2024-03-06T04:55:18;4.63;;;1.63;;
16775;SDS011;8505;49.456;8.164;2024-03-06T04:57:50;3.80;;;1.20;;
16775;SDS011;8505;49.456;8.164;2024-03-06T05:00:19;4.88;;;1.83;;
16775;SDS011;8505;49.456;8.164;2024-03-06T05:02:47;3.70;;;1.92;;
16775;SDS011;8505;49.456;8.164;2024-03-06T05:05:34;2.97;;;1.63;;
16775;SDS011;8505;49.456;8.164;2024-03-06T05:08:20;3.20;;;1.30;;
16775;SDS011;8505;49.456;8.164;2024-03-06T05:11:05;3.42;;;1.00;;
16775;SDS011;8505;49.456;8.164;2024-03-06T05:13:52;2.22;;;1.05;;
16775;SDS011;8505;49.456;8.164;2024-03-06T05:16:38;2.65;;;1.05;;
16775;SDS011;8505;49.456;8.164;2024-03-06T05:19:23;6.80;;;1.23;;
16775;SDS011;8505;49.456;8.164;2024-03-06T05:22:13;4.65;;;2.00;;
16775;SDS011;8505;49.456;8.164;2024-03-06T05:24:58;0.75;;;0.63;;
16775;SDS011;8505;49.456;8.164;2024-03-06T05:27:44;0.73;;;0.50;;
16775;SDS011;8505;49.456;8.164;2024-03-06T05:30:30;0.00;;;0.00;;
16775;SDS011;8505;49.456;8.164;2024-03-06T05:33:16;0.00;;;0.00;;
16775;SDS011;8505;49.456;8.164;2024-03-06T05:36:01;0.00;;;0.00;;
16775;SDS011;8505;49.456;8.164;2024-03-06T05:38:46;0.65;;;0.65;;
16775;SDS011;8505;49.456;8.164;2024-03-06T05:41:32;0.25;;;0.25;;
16775;SDS011;8505;49.456;8.164;2024-03-06T05:44:17;0.80;;;0.80;;
16775;SDS011;8505;49.456;8.164;2024-03-06T05:47:04;5.78;;;1.92;;
16775;SDS011;8505;49.456;8.164;2024-03-06T05:49:50;2.17;;;1.00;;
16775;SDS011;8505;49.456;8.164;2024-03-06T05:52:35;3.72;;;1.55;;
16775;SDS011;8505;49.456;8.164;2024-03-06T05:55:21;2.80;;;1.43;;
16775;SDS011;8505;49.456;8.164;2024-03-06T05:58:06;6.47;;;1.67;;
16775;SDS011;8505;49.456;8.164;2024-03-06T06:00:35;2.78;;;1.33;;
16775;SDS011;8505;49.456;8.164;2024-03-06T06:03:04;2.70;;;1.17;;
16775;SDS011;8505;49.456;8.164;2024-03-06T06:05:33;2.83;;;1.08;;
16775;SDS011;8505;49.456;8.164;2024-03-06T06:08:02;2.30;;;1.40;;
16775;SDS011;8505;49.456;8.164;2024-03-06T06:10:30;0.80;;;0.60;;
16775;SDS011;8505;49.456;8.164;2024-03-06T06:12:58;1.80;;;0.70;;
16775;SDS011;8505;49.456;8.164;2024-03-06T06:15:26;1.60;;;1.00;;
16775;SDS011;8505;49.456;8.164;2024-03-06T06:17:53;0.55;;;0.25;;
16775;SDS011;8505;49.456;8.164;2024-03-06T06:20:22;3.45;;;1.27;;
16775;SDS011;8505;49.456;8.164;2024-03-06T06:22:51;2.23;;;1.10;;
16775;SDS011;8505;49.456;8.164;2024-03-06T06:25:19;9.05;;;2.28;;
16775;SDS011;8505;49.456;8.164;2024-03-06T06:27:47;3.60;;;1.83;;
16775;SDS011;8505;49.456;8.164;2024-03-06T06:30:15;5.47;;;1.80;;
16775;SDS011;8505;49.456;8.164;2024-03-06T06:32:44;6.72;;;2.42;;
16775;SDS011;8505;49.456;8.164;2024-03-06T06:35:12;2.42;;;1.42;;
16775;SDS011;8505;49.456;8.164;2024-03-06T06:37:42;5.53;;;2.03;;
16775;SDS011;8505;49.456;8.164;2024-03-06T06:40:09;3.33;;;1.92;;
16775;SDS011;8505;49.456;8.164;2024-03-06T06:42:43;4.95;;;2.50;;
16775;SDS011;8505;49.456;8.164;2024-03-06T06:45:13;4.15;;;2.00;;
16775;SDS011;8505;49.456;8.164;2024-03-06T06:47:41;3.10;;;1.70;;
16775;SDS011;8505;49.456;8.164;2024-03-06T06:50:09;2.40;;;1.38;;
16775;SDS011;8505;49.456;8.164;2024-03-06T06:52:38;2.35;;;1.63;;
16775;SDS011;8505;49.456;8.164;2024-03-06T06:55:07;5.80;;;2.60;;
16775;SDS011;8505;49.456;8.164;2024-03-06T06:57:38;4.80;;;2.33;;
16775;SDS011;8505;49.456;8.164;2024-03-06T07:00:06;5.43;;;2.60;;
16775;SDS011;8505;49.456;8.164;2024-03-06T07:02:38;7.13;;;2.65;;
16775;SDS011;8505;49.456;8.164;2024-03-06T07:05:08;3.72;;;2.42;;
16775;SDS011;8505;49.456;8.164;2024-03-06T07:07:37;10.52;;;3.05;;
16775;SDS011;8505;49.456;8.164;2024-03-06T07:10:06;5.10;;;2.57;;
16775;SDS011;8505;49.456;8.164;2024-03-06T07:12:35;1.08;;;0.73;;
16775;SDS011;8505;49.456;8.164;2024-03-06T07:15:03;2.73;;;1.37;;
16775;SDS011;8505;49.456;8.164;2024-03-06T07:17:32;6.13;;;2.70;;
16775;SDS011;8505;49.456;8.164;2024-03-06T07:20:00;5.00;;;2.40;;
16775;SDS011;8505;49.456;8.164;2024-03-06T07:22:28;2.97;;;1.58;;
16775;SDS011;8505;49.456;8.164;2024-03-06T07:24:55;9.85;;;3.50;;
16775;SDS011;8505;49.456;8.164;2024-03-06T07:27:24;4.18;;;1.90;;
16775;SDS011;8505;49.456;8.164;2024-03-06T07:29:52;2.33;;;1.42;;
16775;SDS011;8505;49.456;8.164;2024-03-06T07:32:20;2.40;;;1.27;;
16775;SDS011;8505;49.456;8.164;2024-03-06T07:34:48;3.35;;;1.40;;
16775;SDS011;8505;49.456;8.164;2024-03-06T07:37:16;2.92;;;1.67;;
16775;SDS011;8505;49.456;8.164;2024-03-06T07:39:44;0.75;;;0.68;;
16775;SDS011;8505;49.456;8.164;2024-03-06T07:42:13;2.10;;;1.60;;
16775;SDS011;8505;49.456;8.164;2024-03-06T07:44:43;2.58;;;1.17;;
16775;SDS011;8505;49.456;8.164;2024-03-06T07:47:10;3.90;;;1.90;;
16775;SDS011;8505;49.456;8.164;2024-03-06T07:49:39;1.45;;;0.80;;
16775;SDS011;8505;49.456;8.164;2024-03-06T07:52:07;1.45;;;1.00;;
16775;SDS011;8505;49.456;8.164;2024-03-06T07:54:35;4.00;;;1.60;;
16775;SDS011;8505;49.456;8.164;2024-03-06T07:57:05;0.90;;;0.80;;
16775;SDS011;8505;49.456;8.164;2024-03-06T07:59:33;1.13;;;0.63;;
16775;SDS011;8505;49.456;8.164;2024-03-06T08:02:02;1.53;;;0.83;;
16775;SDS011;8505;49.456;8.164;2024-03-06T08:04:31;1.83;;;1.13;;
16775;SDS011;8505;49.456;8.164;2024-03-06T08:06:58;1.38;;;1.00;;
16775;SDS011;8505;49.456;8.164;2024-03-06T08:09:26;1.50;;;0.75;;
16775;SDS011;8505;49.456;8.164;2024-03-06T08:11:55;1.33;;;0.97;;
16775;SDS011;8505;49.456;8.164;2024-03-06T08:14:22;2.33;;;1.43;;
16775;SDS011;8505;49.456;8.164;2024-03-06T08:16:51;3.13;;;1.45;;
16775;SDS011;8505;49.456;8.164;2024-03-06T08:19:20;2.40;;;1.00;;
16775;SDS011;8505;49.456;8.164;2024-03-06T08:21:51;1.40;;;0.65;;
16775;SDS011;8505;49.456;8.164;2024-03-06T08:24:18;1.63;;;1.37;;
16775;SDS011;8505;49.456;8.164;2024-03-06T08:26:46;2.17;;;1.38;;
16775;SDS011;8505;49.456;8.164;2024-03-06T08:29:15;3.97;;;1.58;;
16775;SDS011;8505;49.456;8.164;2024-03-06T08:31:43;1.00;;;0.60;;
16775;SDS011;8505;49.456;8.164;2024-03-06T08:34:11;6.00;;;0.90;;
16775;SDS011;8505;49.456;8.164;2024-03-06T08:36:40;0.10;;;0.10;;
16775;SDS011;8505;49.456;8.164;2024-03-06T08:39:08;1.58;;;1.27;;
16775;SDS011;8505;49.456;8.164;2024-03-06T08:41:39;0.60;;;0.50;;
16775;SDS011;8505;49.456;8.164;2024-03-06T08:44:06;0.10;;;0.10;;
16775;SDS011;8505;49.456;8.164;2024-03-06T08:46:34;1.40;;;1.00;;
16775;SDS011;8505;49.456;8.164;2024-03-06T08:49:02;1.17;;;0.82;;
16775;SDS011;8505;49.456;8.164;2024-03-06T08:51:34;0.60;;;0.40;;
16775;SDS011;8505;49.456;8.164;2024-03-06T08:54:03;1.30;;;0.80;;
16775;SDS011;8505;49.456;8.164;2024-03-06T08:56:31;2.50;;;1.20;;
16775;SDS011;8505;49.456;8.164;2024-03-06T08:59:00;0.20;;;0.20;;
16775;SDS011;8505;49.456;8.164;2024-03-06T09:01:29;0.70;;;0.40;;
16775;SDS011;8505;49.456;8.164;2024-03-06T09:03:56;0.00;;;0.00;;
16775;SDS011;8505;49.456;8.164;2024-03-06T09:06:24;0.70;;;0.40;;
16775;SDS011;8505;49.456;8.164;2024-03-06T09:08:53;0.10;;;0.10;;
16775;SDS011;8505;49.456;8.164;2024-03-06T09:11:22;0.00;;;0.00;;
16775;SDS011;8505;49.456;8.164;2024-03-06T09:13:50;0.00;;;0.00;;
16775;SDS011;8505;49.456;8.164;2024-03-06T09:16:18;0.00;;;0.00;;
16775;SDS011;8505;49.456;8.164;2024-03-06T09:18:46;0.40;;;0.17;;
16775;SDS011;8505;49.456;8.164;2024-03-06T09:21:14;0.05;;;0.05;;
16775;SDS011;8505;49.456;8.164;2024-03-06T09:23:41;1.25;;;0.80;;
16775;SDS011;8505;49.456;8.164;2024-03-06T09:26:09;0.50;;;0.40;;
16775;SDS011;8505;49.456;8.164;2024-03-06T09:28:39;1.30;;;0.20;;
16775;SDS011;8505;49.456;8.164;2024-03-06T09:31:07;1.92;;;0.80;;
16775;SDS011;8505;49.456;8.164;2024-03-06T09:33:34;0.33;;;0.33;;
16775;SDS011;8505;49.456;8.164;2024-03-06T09:36:02;0.00;;;0.00;;
16775;SDS011;8505;49.456;8.164;2024-03-06T09:38:30;1.10;;;0.63;;
16775;SDS011;8505;49.456;8.164;2024-03-06T09:40:58;1.50;;;0.30;;
16775;SDS011;8505;49.456;8.164;2024-03-06T09:43:26;0.30;;;0.23;;
16775;SDS011;8505;49.456;8.164;2024-03-06T09:45:58;2.10;;;0.80;;
16775;SDS011;8505;49.456;8.164;2024-03-06T09:48:28;1.00;;;0.60;;
16775;SDS011;8505;49.456;8.164;2024-03-06T09:50:57;0.40;;;0.30;;
16775;SDS011;8505;49.456;8.164;2024-03-06T09:53:28;0.00;;;0.00;;
16775;SDS011;8505;49.456;8.164;2024-03-06T09:55:56;0.35;;;0.35;;
16775;SDS011;8505;49.456;8.164;2024-03-06T09:58:25;0.30;;;0.20;;
16775;SDS011;8505;49.456;8.164;2024-03-06T10:00:53;1.20;;;0.40;;
16775;SDS011;8505;49.456;8.164;2024-03-06T10:03:26;0.68;;;0.57;;
16775;SDS011;8505;49.456;8.164;2024-03-06T10:05:54;0.30;;;0.20;;
16775;SDS011;8505;49.456;8.164;2024-03-06T10:08:22;1.02;;;0.43;;
16775;SDS011;8505;49.456;8.164;2024-03-06T10:10:53;4.53;;;0.60;;
16775;SDS011;8505;49.456;8.164;2024-03-06T10:13:22;0.35;;;0.32;;
16775;SDS011;8505;49.456;8.164;2024-03-06T10:15:55;0.57;;;0.50;;
16775;SDS011;8505;49.456;8.164;2024-03-06T10:18:27;0.20;;;0.20;;
16775;SDS011;8505;49.456;8.164;2024-03-06T10:20:55;1.13;;;0.50;;
16775;SDS011;8505;49.456;8.164;2024-03-06T10:23:23;1.70;;;0.50;;
16775;SDS011;8505;49.456;8.164;2024-03-06T10:25:51;0.10;;;0.10;;
16775;SDS011;8505;49.456;8.164;2024-03-06T10:28:19;0.40;;;0.20;;
16775;SDS011;8505;49.456;8.164;2024-03-06T10:30:49;0.20;;;0.20;;
16775;SDS011;8505;49.456;8.164;2024-03-06T10:33:18;0.60;;;0.55;;
16775;SDS011;8505;49.456;8.164;2024-03-06T10:35:47;0.60;;;0.30;;
16775;SDS011;8505;49.456;8.164;2024-03-06T10:38:16;0.20;;;0.20;;
16775;SDS011;8505;49.456;8.164;2024-03-06T10:40:47;0.60;;;0.10;;
16775;SDS011;8505;49.456;8.164;2024-03-06T10:43:18;0.90;;;0.30;;
16775;SDS011;8505;49.456;8.164;2024-03-06T10:45:48;0.30;;;0.20;;
16775;SDS011;8505;49.456;8.164;2024-03-06T10:48:17;0.40;;;0.30;;
16775;SDS011;8505;49.456;8.164;2024-03-06T10:50:48;0.70;;;0.40;;
16775;SDS011;8505;49.456;8.164;2024-03-06T10:53:17;1.50;;;0.85;;
16775;SDS011;8505;49.456;8.164;2024-03-06T10:55:49;0.20;;;0.20;;
16775;SDS011;8505;49.456;8.164;2024-03-06T10:58:18;0.10;;;0.10;;
16775;SDS011;8505;49.456;8.164;2024-03-06T11:00:47;1.08;;;0.60;;
16775;SDS011;8505;49.456;8.164;2024-03-06T11:03:15;1.00;;;0.40;;
16775;SDS011;8505;49.456;8.164;2024-03-06T11:05:44;0.10;;;0.10;;
16775;SDS011;8505;49.456;8.164;2024-03-06T11:08:15;0.40;;;0.40;;
16775;SDS011;8505;49.456;8.164;2024-03-06T11:10:44;0.47;;;0.40;;
16775;SDS011;8505;49.456;8.164;2024-03-06T11:13:20;2.53;;;0.55;;
16775;SDS011;8505;49.456;8.164;2024-03-06T11:15:50;1.50;;;0.65;;
16775;SDS011;8505;49.456;8.164;2024-03-06T11:24:15;0.32;;;0.30;;
16775;SDS011;8505;49.456;8.164;2024-03-06T11:26:46;0.37;;;0.20;;
16775;SDS011;8505;49.456;8.164;2024-03-06T11:29:17;2.77;;;1.07;;
16775;SDS011;8505;49.456;8.164;2024-03-06T11:31:57;1.33;;;0.68;;
16775;SDS011;8505;49.456;8.164;2024-03-06T11:34:30;0.32;;;0.30;;
16775;SDS011;8505;49.456;8.164;2024-03-06T11:36:57;2.97;;;1.17;;
16775;SDS011;8505;49.456;8.164;2024-03-06T11:39:29;0.67;;;0.50;;
16775;SDS011;8505;49.456;8.164;2024-03-06T11:42:00;2.22;;;0.93;;
16775;SDS011;8505;49.456;8.164;2024-03-06T11:44:28;2.70;;;1.30;;
16775;SDS011;8505;49.456;8.164;2024-03-06T11:46:57;1.10;;;0.70;;
16775;SDS011;8505;49.456;8.164;2024-03-06T11:49:26;1.20;;;0.20;;
16775;SDS011;8505;49.456;8.164;2024-03-06T11:51:56;0.40;;;0.40;;
16775;SDS011;8505;49.456;8.164;2024-03-06T11:54:25;2.13;;;1.20;;
16775;SDS011;8505;49.456;8.164;2024-03-06T11:56:55;2.50;;;1.23;;
16775;SDS011;8505;49.456;8.164;2024-03-06T11:59:24;0.57;;;0.57;;
16775;SDS011;8505;49.456;8.164;2024-03-06T12:01:54;3.13;;;1.38;;
16775;SDS011;8505;49.456;8.164;2024-03-06T12:04:23;2.22;;;1.30;;
16775;SDS011;8505;49.456;8.164;2024-03-06T12:06:52;1.45;;;0.85;;
16775;SDS011;8505;49.456;8.164;2024-03-06T12:09:19;2.70;;;1.10;;
16775;SDS011;8505;49.456;8.164;2024-03-06T12:11:47;0.28;;;0.28;;
16775;SDS011;8505;49.456;8.164;2024-03-06T12:14:17;2.67;;;1.15;;
16775;SDS011;8505;49.456;8.164;2024-03-06T12:16:54;2.95;;;1.10;;
16775;SDS011;8505;49.456;8.164;2024-03-06T12:19:22;6.15;;;2.25;;
16775;SDS011;8505;49.456;8.164;2024-03-06T12:21:50;5.50;;;2.13;;
16775;SDS011;8505;49.456;8.164;2024-03-06T12:24:20;0.32;;;0.32;;
16775;SDS011;8505;49.456;8.164;2024-03-06T12:26:57;1.67;;;0.85;;
16775;SDS011;8505;49.456;8.164;2024-03-06T12:29:28;4.83;;;1.80;;
16775;SDS011;8505;49.456;8.164;2024-03-06T12:31:58;0.30;;;0.30;;
16775;SDS011;8505;49.456;8.164;2024-03-06T12:34:26;0.43;;;0.40;;
16775;SDS011;8505;49.456;8.164;2024-03-06T12:36:56;1.50;;;1.10;;
16775;SDS011;8505;49.456;8.164;2024-03-06T12:39:24;2.87;;;1.80;;
16775;SDS011;8505;49.456;8.164;2024-03-06T12:41:51;3.35;;;1.33;;
16775;SDS011;8505;49.456;8.164;2024-03-06T12:44:20;5.03;;;2.00;;
16775;SDS011;8505;49.456;8.164;2024-03-06T12:46:49;5.72;;;2.10;;
16775;SDS011;8505;49.456;8.164;2024-03-06T12:49:17;2.63;;;0.93;;
16775;SDS011;8505;49.456;8.164;2024-03-06T12:51:46;1.00;;;0.90;;
16775;SDS011;8505;49.456;8.164;2024-03-06T12:54:13;1.85;;;1.02;;
16775;SDS011;8505;49.456;8.164;2024-03-06T12:56:41;0.10;;;0.10;;
16775;SDS011;8505;49.456;8.164;2024-03-06T12:59:09;2.28;;;1.55;;
16775;SDS011;8505;49.456;8.164;2024-03-06T13:01:37;2.10;;;0.90;;
16775;SDS011;8505;49.456;8.164;2024-03-06T13:04:06;2.33;;;1.30;;
16775;SDS011;8505;49.456;8.164;2024-03-06T13:06:36;3.22;;;2.08;;
16775;SDS011;8505;49.456;8.164;2024-03-06T13:09:06;4.30;;;1.25;;
16775;SDS011;8505;49.456;8.164;2024-03-06T13:11:34;2.25;;;1.45;;
16775;SDS011;8505;49.456;8.164;2024-03-06T13:14:02;0.40;;;0.40;;
16775;SDS011;8505;49.456;8.164;2024-03-06T13:16:30;0.15;;;0.15;;
16775;SDS011;8505;49.456;8.164;2024-03-06T13:18:57;0.77;;;0.50;;
16775;SDS011;8505;49.456;8.164;2024-03-06T13:21:28;1.77;;;0.75;;
16775;SDS011;8505;49.456;8.164;2024-03-06T13:23:56;1.60;;;1.20;;
16775;SDS011;8505;49.456;8.164;2024-03-06T13:26:23;5.70;;;2.17;;
16775;SDS011;8505;49.456;8.164;2024-03-06T13:28:51;1.08;;;0.80;;
16775;SDS011;8505;49.456;8.164;2024-03-06T13:31:19;1.50;;;0.60;;
16775;SDS011;8505;49.456;8.164;2024-03-06T13:33:47;1.80;;;1.10;;
16775;SDS011;8505;49.456;8.164;2024-03-06T13:36:16;4.35;;;1.73;;
16775;SDS011;8505;49.456;8.164;2024-03-06T13:38:45;0.60;;;0.60;;
16775;SDS011;8505;49.456;8.164;2024-03-06T13:41:13;1.00;;;0.70;;
16775;SDS011;8505;49.456;8.164;2024-03-06T13:43:41;9.20;;;4.30;;
16775;SDS011;8505;49.456;8.164;2024-03-06T13:46:08;5.10;;;2.43;;
16775;SDS011;8505;49.456;8.164;2024-03-06T13:48:36;2.55;;;1.33;;
16775;SDS011;8505;49.456;8.164;2024-03-06T13:51:04;3.05;;;1.80;;
16775;SDS011;8505;49.456;8.164;2024-03-06T13:53:33;2.23;;;1.47;;
16775;SDS011;8505;49.456;8.164;2024-03-06T13:56:02;1.77;;;1.40;;
16775;SDS011;8505;49.456;8.164;2024-03-06T13:58:30;0.90;;;0.60;;
16775;SDS011;8505;49.456;8.164;2024-03-06T14:00:58;1.70;;;1.55;;
16775;SDS011;8505;49.456;8.164;2024-03-06T14:03:25;1.10;;;0.90;;
16775;SDS011;8505;49.456;8.164;2024-03-06T14:05:54;1.08;;;0.98;;
16775;SDS011;8505;49.456;8.164;2024-03-06T14:08:21;7.80;;;2.58;;
16775;SDS011;8505;49.456;8.164;2024-03-06T14:10:51;7.28;;;2.50;;
16775;SDS011;8505;49.456;8.164;2024-03-06T14:13:21;2.17;;;1.07;;
16775;SDS011;8505;49.456;8.164;2024-03-06T14:15:49;3.33;;;1.83;;
16775;SDS011;8505;49.456;8.164;2024-03-06T14:18:16;3.03;;;1.83;;
16775;SDS011;8505;49.456;8.164;2024-03-06T14:20:44;0.93;;;0.73;;
16775;SDS011;8505;49.456;8.164;2024-03-06T14:23:12;0.90;;;0.60;;
16775;SDS011;8505;49.456;8.164;2024-03-06T14:25:40;1.90;;;1.20;;
16775;SDS011;8505;49.456;8.164;2024-03-06T14:28:08;2.10;;;1.40;;
16775;SDS011;8505;49.456;8.164;2024-03-06T14:30:37;4.22;;;2.22;;
16775;SDS011;8505;49.456;8.164;2024-03-06T14:33:05;4.70;;;1.88;;
16775;SDS011;8505;49.456;8.164;2024-03-06T14:35:33;1.00;;;0.60;;
16775;SDS011;8505;49.456;8.164;2024-03-06T14:38:01;2.05;;;1.17;;
16775;SDS011;8505;49.456;8.164;2024-03-06T14:40:29;4.00;;;1.20;;
16775;SDS011;8505;49.456;8.164;2024-03-06T14:42:57;5.78;;;2.05;;
16775;SDS011;8505;49.456;8.164;2024-03-06T14:45:25;2.60;;;1.67;;
16775;SDS011;8505;49.456;8.164;2024-03-06T14:47:54;1.85;;;1.02;;
16775;SDS011;8505;49.456;8.164;2024-03-06T14:50:22;1.50;;;1.05;;
16775;SDS011;8505;49.456;8.164;2024-03-06T14:52:50;2.07;;;1.67;;
16775;SDS011;8505;49.456;8.164;2024-03-06T14:55:18;0.55;;;0.55;;
16775;SDS011;8505;49.456;8.164;2024-03-06T14:57:46;2.58;;;1.60;;
16775;SDS011;8505;49.456;8.164;2024-03-06T15:00:14;6.25;;;2.95;;
16775;SDS011;8505;49.456;8.164;2024-03-06T15:02:44;5.20;;;2.05;;
16775;SDS011;8505;49.456;8.164;2024-03-06T15:05:13;2.80;;;1.45;;
16775;SDS011;8505;49.456;8.164;2024-03-06T15:07:41;2.60;;;1.80;;
16775;SDS011;8505;49.456;8.164;2024-03-06T15:10:09;1.95;;;1.58;;
16775;SDS011;8505;49.456;8.164;2024-03-06T15:12:37;4.00;;;1.20;;
16775;SDS011;8505;49.456;8.164;2024-03-06T15:15:05;2.75;;;1.05;;
16775;SDS011;8505;49.456;8.164;2024-03-06T15:17:34;3.65;;;1.90;;
16775;SDS011;8505;49.456;8.164;2024-03-06T15:20:05;1.17;;;1.00;;